sensor_id;sensor_type;location;lat;lon;timestamp;temperature;humidity
19870;DHT22;10097;50.862;4.696;2023-10-09T00:01:40;16.40;99.90
19870;DHT22;10097;50.862;4.696;2023-10-09T00:04:10;16.50;99.90
19870;DHT22;10097;50.862;4.696;2023-10-09T00:06:37;16.50;99.90
19870;DHT22;10097;50.862;4.696;2023-10-09T00:09:06;16.50;99.90
19870;DHT22;10097;50.862;4.696;2023-10-09T00:11:51;16.50;99.90
19870;DHT22;10097;50.862;4.696;2023-10-09T00:14:26;16.50;99.90
19870;DHT22;10097;50.862;4.696;2023-10-09T00:16:52;16.60;99.90
19870;DHT22;10097;50.862;4.696;2023-10-09T00:19:36;16.70;99.90
19870;DHT22;10097;50.862;4.696;2023-10-09T00:22:02;16.90;99.90
19870;DHT22;10097;50.862;4.696;2023-10-09T00:24:45;17.00;99.90
19870;DHT22;10097;50.862;4.696;2023-10-09T00:27:11;17.00;99.90
19870;DHT22;10097;50.862;4.696;2023-10-09T00:29:39;17.00;99.90
19870;DHT22;10097;50.862;4.696;2023-10-09T00:32:13;17.00;99.90
19870;DHT22;10097;50.862;4.696;2023-10-09T00:34:41;17.00;99.90
19870;DHT22;10097;50.862;4.696;2023-10-09T00:37:10;17.00;99.90
19870;DHT22;10097;50.862;4.696;2023-10-09T00:39:42;17.00;99.90
19870;DHT22;10097;50.862;4.696;2023-10-09T00:42:10;17.00;99.90
19870;DHT22;10097;50.862;4.696;2023-10-09T00:44:51;17.00;99.90
19870;DHT22;10097;50.862;4.696;2023-10-09T00:47:17;16.80;99.90
19870;DHT22;10097;50.862;4.696;2023-10-09T00:49:50;16.70;99.90
19870;DHT22;10097;50.862;4.696;2023-10-09T00:52:21;16.70;99.90
19870;DHT22;10097;50.862;4.696;2023-10-09T00:55:00;16.70;99.90
19870;DHT22;10097;50.862;4.696;2023-10-09T00:57:34;16.70;99.90
19870;DHT22;10097;50.862;4.696;2023-10-09T01:00:03;16.70;99.90
19870;DHT22;10097;50.862;4.696;2023-10-09T01:02:49;16.70;99.90
19870;DHT22;10097;50.862;4.696;2023-10-09T01:05:27;16.80;99.90
19870;DHT22;10097;50.862;4.696;2023-10-09T01:07:54;16.70;99.90
19870;DHT22;10097;50.862;4.696;2023-10-09T01:10:24;16.80;99.90
19870;DHT22;10097;50.862;4.696;2023-10-09T01:12:51;16.80;99.90
19870;DHT22;10097;50.862;4.696;2023-10-09T01:15:20;16.80;99.90
19870;DHT22;10097;50.862;4.696;2023-10-09T01:18:02;16.80;99.90
19870;DHT22;10097;50.862;4.696;2023-10-09T01:20:30;16.80;99.90
19870;DHT22;10097;50.862;4.696;2023-10-09T01:23:02;16.80;99.90
19870;DHT22;10097;50.862;4.696;2023-10-09T01:25:27;16.80;99.90
19870;DHT22;10097;50.862;4.696;2023-10-09T01:28:07;16.80;99.90
19870;DHT22;10097;50.862;4.696;2023-10-09T01:30:32;16.80;99.90
19870;DHT22;10097;50.862;4.696;2023-10-09T01:32:58;16.80;99.90
19870;DHT22;10097;50.862;4.696;2023-10-09T01:35:37;16.80;99.90
19870;DHT22;10097;50.862;4.696;2023-10-09T01:38:15;16.80;99.90
19870;DHT22;10097;50.862;4.696;2023-10-09T01:40:41;16.80;99.90
19870;DHT22;10097;50.862;4.696;2023-10-09T01:43:06;16.90;99.90
19870;DHT22;10097;50.862;4.696;2023-10-09T01:45:38;16.90;99.90
19870;DHT22;10097;50.862;4.696;2023-10-09T01:48:07;16.90;99.90
19870;DHT22;10097;50.862;4.696;2023-10-09T01:50:33;16.90;99.90
19870;DHT22;10097;50.862;4.696;2023-10-09T01:53:01;16.90;99.90
19870;DHT22;10097;50.862;4.696;2023-10-09T01:55:29;16.90;99.90
19870;DHT22;10097;50.862;4.696;2023-10-09T01:58:07;16.90;99.90
19870;DHT22;10097;50.862;4.696;2023-10-09T02:00:48;17.00;99.90
19870;DHT22;10097;50.862;4.696;2023-10-09T02:03:19;17.10;99.90
19870;DHT22;10097;50.862;4.696;2023-10-09T02:05:49;17.10;99.90
19870;DHT22;10097;50.862;4.696;2023-10-09T02:08:19;17.10;99.90
19870;DHT22;10097;50.862;4.696;2023-10-09T02:10:52;17.20;99.90
19870;DHT22;10097;50.862;4.696;2023-10-09T02:13:21;17.20;99.90
19870;DHT22;10097;50.862;4.696;2023-10-09T02:15:56;17.20;99.90
19870;DHT22;10097;50.862;4.696;2023-10-09T02:18:38;17.20;99.90
19870;DHT22;10097;50.862;4.696;2023-10-09T02:21:18;17.20;99.90
19870;DHT22;10097;50.862;4.696;2023-10-09T02:23:58;17.30;99.90
19870;DHT22;10097;50.862;4.696;2023-10-09T02:26:28;17.40;99.90
19870;DHT22;10097;50.862;4.696;2023-10-09T02:29:13;17.30;99.90
19870;DHT22;10097;50.862;4.696;2023-10-09T02:31:39;17.30;99.90
19870;DHT22;10097;50.862;4.696;2023-10-09T02:34:17;17.40;99.90
19870;DHT22;10097;50.862;4.696;2023-10-09T02:36:47;17.30;99.90
19870;DHT22;10097;50.862;4.696;2023-10-09T02:39:26;17.30;99.90
19870;DHT22;10097;50.862;4.696;2023-10-09T02:41:56;17.30;99.90
19870;DHT22;10097;50.862;4.696;2023-10-09T02:44:44;17.30;99.90
19870;DHT22;10097;50.862;4.696;2023-10-09T02:47:16;17.20;99.90
19870;DHT22;10097;50.862;4.696;2023-10-09T02:49:56;17.20;99.90
19870;DHT22;10097;50.862;4.696;2023-10-09T02:52:31;17.20;99.90
19870;DHT22;10097;50.862;4.696;2023-10-09T02:54:58;17.10;99.90
19870;DHT22;10097;50.862;4.696;2023-10-09T02:57:39;17.10;99.90
19870;DHT22;10097;50.862;4.696;2023-10-09T03:00:07;17.00;99.90
19870;DHT22;10097;50.862;4.696;2023-10-09T03:02:45;17.00;99.90
19870;DHT22;10097;50.862;4.696;2023-10-09T03:05:14;17.00;99.90
19870;DHT22;10097;50.862;4.696;2023-10-09T03:07:40;17.00;99.90
19870;DHT22;10097;50.862;4.696;2023-10-09T03:10:07;17.00;99.90
19870;DHT22;10097;50.862;4.696;2023-10-09T03:12:35;17.00;99.90
19870;DHT22;10097;50.862;4.696;2023-10-09T03:15:01;17.10;99.90
19870;DHT22;10097;50.862;4.696;2023-10-09T03:17:31;17.10;99.90
19870;DHT22;10097;50.862;4.696;2023-10-09T03:20:02;17.10;99.90
19870;DHT22;10097;50.862;4.696;2023-10-09T03:22:28;17.00;99.90
19870;DHT22;10097;50.862;4.696;2023-10-09T03:24:56;17.10;99.90
19870;DHT22;10097;50.862;4.696;2023-10-09T03:27:21;17.00;99.90
19870;DHT22;10097;50.862;4.696;2023-10-09T03:29:47;17.00;99.90
19870;DHT22;10097;50.862;4.696;2023-10-09T03:32:19;16.90;99.90
19870;DHT22;10097;50.862;4.696;2023-10-09T03:34:45;17.00;99.90
19870;DHT22;10097;50.862;4.696;2023-10-09T03:37:11;17.10;99.90
19870;DHT22;10097;50.862;4.696;2023-10-09T03:39:55;17.00;99.90
19870;DHT22;10097;50.862;4.696;2023-10-09T03:45:48;17.00;99.90
19870;DHT22;10097;50.862;4.696;2023-10-09T03:52:03;16.70;99.90
19870;DHT22;10097;50.862;4.696;2023-10-09T03:57:57;16.60;99.90
19870;DHT22;10097;50.862;4.696;2023-10-09T04:03:49;16.70;99.90
19870;DHT22;10097;50.862;4.696;2023-10-09T04:06:23;16.70;99.90
19870;DHT22;10097;50.862;4.696;2023-10-09T04:08:54;16.70;99.90
19870;DHT22;10097;50.862;4.696;2023-10-09T04:11:20;16.70;99.90
19870;DHT22;10097;50.862;4.696;2023-10-09T04:13:49;16.70;99.90
19870;DHT22;10097;50.862;4.696;2023-10-09T04:16:19;16.70;99.90
19870;DHT22;10097;50.862;4.696;2023-10-09T04:22:19;16.70;99.90
19870;DHT22;10097;50.862;4.696;2023-10-09T04:24:51;16.70;99.90
19870;DHT22;10097;50.862;4.696;2023-10-09T04:27:22;16.60;99.90
19870;DHT22;10097;50.862;4.696;2023-10-09T04:29:52;16.70;99.90
19870;DHT22;10097;50.862;4.696;2023-10-09T04:32:19;16.70;99.90
19870;DHT22;10097;50.862;4.696;2023-10-09T04:34:50;16.70;99.90
19870;DHT22;10097;50.862;4.696;2023-10-09T04:37:36;16.60;99.90
19870;DHT22;10097;50.862;4.696;2023-10-09T04:40:07;16.70;99.90
19870;DHT22;10097;50.862;4.696;2023-10-09T04:42:38;16.60;99.90
19870;DHT22;10097;50.862;4.696;2023-10-09T04:45:05;16.60;99.90
19870;DHT22;10097;50.862;4.696;2023-10-09T04:47:37;16.60;99.90
19870;DHT22;10097;50.862;4.696;2023-10-09T04:50:04;16.70;99.90
19870;DHT22;10097;50.862;4.696;2023-10-09T04:52:50;16.70;99.90
19870;DHT22;10097;50.862;4.696;2023-10-09T04:55:18;16.80;99.90
19870;DHT22;10097;50.862;4.696;2023-10-09T04:57:46;16.80;99.90
19870;DHT22;10097;50.862;4.696;2023-10-09T05:00:16;16.90;99.90
19870;DHT22;10097;50.862;4.696;2023-10-09T05:03:08;16.90;99.90
19870;DHT22;10097;50.862;4.696;2023-10-09T05:05:52;16.80;99.90
19870;DHT22;10097;50.862;4.696;2023-10-09T05:08:25;16.70;99.90
19870;DHT22;10097;50.862;4.696;2023-10-09T05:10:58;16.70;99.90
19870;DHT22;10097;50.862;4.696;2023-10-09T05:13:24;16.60;99.90
19870;DHT22;10097;50.862;4.696;2023-10-09T05:16:16;16.60;99.90
19870;DHT22;10097;50.862;4.696;2023-10-09T05:18:46;16.60;99.90
19870;DHT22;10097;50.862;4.696;2023-10-09T05:21:39;16.70;99.90
19870;DHT22;10097;50.862;4.696;2023-10-09T05:24:08;16.70;99.90
19870;DHT22;10097;50.862;4.696;2023-10-09T05:26:37;16.70;99.90
19870;DHT22;10097;50.862;4.696;2023-10-09T05:29:25;16.70;99.90
19870;DHT22;10097;50.862;4.696;2023-10-09T05:31:54;16.70;99.90
19870;DHT22;10097;50.862;4.696;2023-10-09T05:34:26;16.60;99.90
19870;DHT22;10097;50.862;4.696;2023-10-09T05:37:24;16.60;99.90
19870;DHT22;10097;50.862;4.696;2023-10-09T05:39:54;16.60;99.90
19870;DHT22;10097;50.862;4.696;2023-10-09T05:42:31;16.70;99.90
19870;DHT22;10097;50.862;4.696;2023-10-09T05:45:06;16.60;99.90
19870;DHT22;10097;50.862;4.696;2023-10-09T05:47:52;16.70;99.90
19870;DHT22;10097;50.862;4.696;2023-10-09T05:50:36;16.70;99.90
19870;DHT22;10097;50.862;4.696;2023-10-09T05:53:25;16.70;99.90
19870;DHT22;10097;50.862;4.696;2023-10-09T05:56:09;16.60;99.90
19870;DHT22;10097;50.862;4.696;2023-10-09T05:58:53;16.50;99.90
19870;DHT22;10097;50.862;4.696;2023-10-09T06:01:39;16.60;99.90
19870;DHT22;10097;50.862;4.696;2023-10-09T06:04:23;16.60;99.90
19870;DHT22;10097;50.862;4.696;2023-10-09T06:07:09;16.60;99.90
19870;DHT22;10097;50.862;4.696;2023-10-09T06:09:39;16.60;99.90
19870;DHT22;10097;50.862;4.696;2023-10-09T06:12:22;16.70;99.90
19870;DHT22;10097;50.862;4.696;2023-10-09T06:15:15;16.70;99.90
19870;DHT22;10097;50.862;4.696;2023-10-09T06:18:02;16.80;99.90
19870;DHT22;10097;50.862;4.696;2023-10-09T06:20:47;16.80;99.90
19870;DHT22;10097;50.862;4.696;2023-10-09T06:23:32;16.80;99.90
19870;DHT22;10097;50.862;4.696;2023-10-09T06:26:34;16.90;99.90
19870;DHT22;10097;50.862;4.696;2023-10-09T06:29:00;17.00;99.90
19870;DHT22;10097;50.862;4.696;2023-10-09T06:31:41;16.90;99.90
19870;DHT22;10097;50.862;4.696;2023-10-09T06:34:42;16.90;99.90
19870;DHT22;10097;50.862;4.696;2023-10-09T06:37:11;17.00;99.90
19870;DHT22;10097;50.862;4.696;2023-10-09T06:40:00;16.90;99.90
19870;DHT22;10097;50.862;4.696;2023-10-09T06:43:14;17.00;99.90
19870;DHT22;10097;50.862;4.696;2023-10-09T06:45:45;17.00;99.90
19870;DHT22;10097;50.862;4.696;2023-10-09T06:48:12;17.10;99.90
19870;DHT22;10097;50.862;4.696;2023-10-09T06:54:25;17.20;99.90
19870;DHT22;10097;50.862;4.696;2023-10-09T06:56:53;17.20;99.90
19870;DHT22;10097;50.862;4.696;2023-10-09T06:59:19;17.20;99.90
19870;DHT22;10097;50.862;4.696;2023-10-09T07:01:52;17.30;99.90
19870;DHT22;10097;50.862;4.696;2023-10-09T07:04:37;17.30;99.90
19870;DHT22;10097;50.862;4.696;2023-10-09T07:07:03;17.30;99.90
19870;DHT22;10097;50.862;4.696;2023-10-09T07:09:35;17.40;99.90
19870;DHT22;10097;50.862;4.696;2023-10-09T07:12:29;17.40;99.90
19870;DHT22;10097;50.862;4.696;2023-10-09T07:15:00;17.50;99.90
19870;DHT22;10097;50.862;4.696;2023-10-09T07:17:50;17.50;99.90
19870;DHT22;10097;50.862;4.696;2023-10-09T07:20:18;17.50;99.90
19870;DHT22;10097;50.862;4.696;2023-10-09T07:23:03;17.60;99.90
19870;DHT22;10097;50.862;4.696;2023-10-09T07:25:42;17.80;99.90
19870;DHT22;10097;50.862;4.696;2023-10-09T07:28:21;17.80;99.90
19870;DHT22;10097;50.862;4.696;2023-10-09T07:31:16;17.90;99.90
19870;DHT22;10097;50.862;4.696;2023-10-09T07:33:53;18.10;99.90
19870;DHT22;10097;50.862;4.696;2023-10-09T07:36:25;18.00;99.90
19870;DHT22;10097;50.862;4.696;2023-10-09T07:39:01;17.90;99.90
19870;DHT22;10097;50.862;4.696;2023-10-09T07:41:31;18.00;99.90
19870;DHT22;10097;50.862;4.696;2023-10-09T07:43:57;18.10;99.90
19870;DHT22;10097;50.862;4.696;2023-10-09T07:46:23;18.10;99.90
19870;DHT22;10097;50.862;4.696;2023-10-09T07:49:05;18.10;99.90
19870;DHT22;10097;50.862;4.696;2023-10-09T07:51:50;18.00;99.90
19870;DHT22;10097;50.862;4.696;2023-10-09T07:54:18;18.00;99.90
19870;DHT22;10097;50.862;4.696;2023-10-09T07:56:58;18.10;99.90
19870;DHT22;10097;50.862;4.696;2023-10-09T07:59:34;18.20;99.90
19870;DHT22;10097;50.862;4.696;2023-10-09T08:02:07;18.40;99.90
19870;DHT22;10097;50.862;4.696;2023-10-09T08:04:39;18.60;99.90
19870;DHT22;10097;50.862;4.696;2023-10-09T08:07:14;18.70;99.90
19870;DHT22;10097;50.862;4.696;2023-10-09T08:09:51;18.80;99.90
19870;DHT22;10097;50.862;4.696;2023-10-09T08:12:36;18.90;99.90
19870;DHT22;10097;50.862;4.696;2023-10-09T08:15:24;18.90;99.90
19870;DHT22;10097;50.862;4.696;2023-10-09T08:18:16;18.90;99.90
19870;DHT22;10097;50.862;4.696;2023-10-09T08:20:54;19.00;99.90
19870;DHT22;10097;50.862;4.696;2023-10-09T08:23:23;19.00;99.90
19870;DHT22;10097;50.862;4.696;2023-10-09T08:26:08;19.00;99.90
19870;DHT22;10097;50.862;4.696;2023-10-09T08:28:45;19.00;99.90
19870;DHT22;10097;50.862;4.696;2023-10-09T08:31:18;18.80;99.90
19870;DHT22;10097;50.862;4.696;2023-10-09T08:33:46;18.70;99.90
19870;DHT22;10097;50.862;4.696;2023-10-09T08:36:23;18.90;99.90
19870;DHT22;10097;50.862;4.696;2023-10-09T08:38:54;18.80;99.90
19870;DHT22;10097;50.862;4.696;2023-10-09T08:41:23;18.90;99.90
19870;DHT22;10097;50.862;4.696;2023-10-09T08:43:56;19.10;99.90
19870;DHT22;10097;50.862;4.696;2023-10-09T08:46:25;19.30;99.90
19870;DHT22;10097;50.862;4.696;2023-10-09T08:48:58;19.20;99.90
19870;DHT22;10097;50.862;4.696;2023-10-09T08:51:26;19.40;99.90
19870;DHT22;10097;50.862;4.696;2023-10-09T08:53:52;19.60;99.90
19870;DHT22;10097;50.862;4.696;2023-10-09T08:56:19;19.60;99.90
19870;DHT22;10097;50.862;4.696;2023-10-09T08:58:55;19.70;99.90
19870;DHT22;10097;50.862;4.696;2023-10-09T09:01:21;19.60;99.90
19870;DHT22;10097;50.862;4.696;2023-10-09T09:03:50;19.60;99.90
19870;DHT22;10097;50.862;4.696;2023-10-09T09:06:19;19.80;99.90
19870;DHT22;10097;50.862;4.696;2023-10-09T09:08:51;19.70;99.90
19870;DHT22;10097;50.862;4.696;2023-10-09T09:11:24;19.90;99.90
19870;DHT22;10097;50.862;4.696;2023-10-09T09:16:22;20.20;99.90
19870;DHT22;10097;50.862;4.696;2023-10-09T09:21:37;20.30;99.90
19870;DHT22;10097;50.862;4.696;2023-10-09T09:24:07;20.50;99.90
19870;DHT22;10097;50.862;4.696;2023-10-09T09:26:43;20.50;99.90
19870;DHT22;10097;50.862;4.696;2023-10-09T09:29:15;20.30;99.90
19870;DHT22;10097;50.862;4.696;2023-10-09T09:31:56;20.20;99.90
19870;DHT22;10097;50.862;4.696;2023-10-09T09:34:51;20.30;99.90
19870;DHT22;10097;50.862;4.696;2023-10-09T09:37:24;20.40;99.90
19870;DHT22;10097;50.862;4.696;2023-10-09T09:39:58;20.30;99.90
19870;DHT22;10097;50.862;4.696;2023-10-09T09:42:27;20.40;99.90
19870;DHT22;10097;50.862;4.696;2023-10-09T09:44:53;20.50;99.90
19870;DHT22;10097;50.862;4.696;2023-10-09T09:47:21;20.60;99.90
19870;DHT22;10097;50.862;4.696;2023-10-09T09:49:53;20.90;99.90
19870;DHT22;10097;50.862;4.696;2023-10-09T09:52:29;20.90;99.90
19870;DHT22;10097;50.862;4.696;2023-10-09T09:55:06;20.90;99.90
19870;DHT22;10097;50.862;4.696;2023-10-09T09:57:33;21.10;99.90
19870;DHT22;10097;50.862;4.696;2023-10-09T10:00:08;21.00;99.90
19870;DHT22;10097;50.862;4.696;2023-10-09T10:02:45;21.20;99.90
19870;DHT22;10097;50.862;4.696;2023-10-09T10:05:12;21.40;99.90
19870;DHT22;10097;50.862;4.696;2023-10-09T10:07:41;21.60;99.90
19870;DHT22;10097;50.862;4.696;2023-10-09T10:10:35;21.60;99.90
19870;DHT22;10097;50.862;4.696;2023-10-09T10:13:03;21.80;99.90
19870;DHT22;10097;50.862;4.696;2023-10-09T10:15:58;21.90;99.90
19870;DHT22;10097;50.862;4.696;2023-10-09T10:18:24;22.10;99.90
19870;DHT22;10097;50.862;4.696;2023-10-09T10:23:44;22.40;99.90
19870;DHT22;10097;50.862;4.696;2023-10-09T10:26:20;22.30;99.90
19870;DHT22;10097;50.862;4.696;2023-10-09T10:29:17;22.30;99.90
19870;DHT22;10097;50.862;4.696;2023-10-09T10:31:58;22.20;99.90
19870;DHT22;10097;50.862;4.696;2023-10-09T10:34:52;22.40;99.90
19870;DHT22;10097;50.862;4.696;2023-10-09T10:40:26;22.50;99.90
19870;DHT22;10097;50.862;4.696;2023-10-09T10:43:07;22.50;99.90
19870;DHT22;10097;50.862;4.696;2023-10-09T10:46:14;22.50;99.90
19870;DHT22;10097;50.862;4.696;2023-10-09T10:48:41;22.40;99.90
19870;DHT22;10097;50.862;4.696;2023-10-09T10:51:20;22.50;99.90
19870;DHT22;10097;50.862;4.696;2023-10-09T10:54:01;22.40;99.90
19870;DHT22;10097;50.862;4.696;2023-10-09T10:56:47;22.50;99.90
19870;DHT22;10097;50.862;4.696;2023-10-09T10:59:20;22.40;99.90
19870;DHT22;10097;50.862;4.696;2023-10-09T11:01:51;22.60;99.90
19870;DHT22;10097;50.862;4.696;2023-10-09T11:04:27;22.60;99.90
19870;DHT22;10097;50.862;4.696;2023-10-09T11:07:02;22.80;99.90
19870;DHT22;10097;50.862;4.696;2023-10-09T11:09:57;22.70;99.90
19870;DHT22;10097;50.862;4.696;2023-10-09T11:12:28;22.80;99.90
19870;DHT22;10097;50.862;4.696;2023-10-09T11:15:13;23.00;99.90
19870;DHT22;10097;50.862;4.696;2023-10-09T11:18:07;23.20;99.90
19870;DHT22;10097;50.862;4.696;2023-10-09T11:20:38;23.20;99.90
19870;DHT22;10097;50.862;4.696;2023-10-09T11:23:05;23.40;99.90
19870;DHT22;10097;50.862;4.696;2023-10-09T11:25:43;23.50;99.90
19870;DHT22;10097;50.862;4.696;2023-10-09T11:28:20;23.50;99.90
19870;DHT22;10097;50.862;4.696;2023-10-09T11:31:06;23.60;99.90
19870;DHT22;10097;50.862;4.696;2023-10-09T11:33:49;23.50;99.90
19870;DHT22;10097;50.862;4.696;2023-10-09T11:36:20;23.50;99.90
19870;DHT22;10097;50.862;4.696;2023-10-09T11:38:57;23.50;99.90
19870;DHT22;10097;50.862;4.696;2023-10-09T11:41:43;23.40;99.90
19870;DHT22;10097;50.862;4.696;2023-10-09T11:44:10;23.50;99.90
19870;DHT22;10097;50.862;4.696;2023-10-09T11:47:04;23.60;99.90
19870;DHT22;10097;50.862;4.696;2023-10-09T11:49:56;23.80;99.90
19870;DHT22;10097;50.862;4.696;2023-10-09T11:52:55;23.90;99.90
19870;DHT22;10097;50.862;4.696;2023-10-09T11:55:35;23.90;99.90
19870;DHT22;10097;50.862;4.696;2023-10-09T11:58:04;24.00;99.90
19870;DHT22;10097;50.862;4.696;2023-10-09T12:00:39;24.10;99.90
19870;DHT22;10097;50.862;4.696;2023-10-09T12:03:11;24.20;99.90
19870;DHT22;10097;50.862;4.696;2023-10-09T12:05:38;24.00;99.90
19870;DHT22;10097;50.862;4.696;2023-10-09T12:08:08;23.90;99.90
19870;DHT22;10097;50.862;4.696;2023-10-09T12:10:35;23.80;99.90
19870;DHT22;10097;50.862;4.696;2023-10-09T12:13:05;23.70;99.90
19870;DHT22;10097;50.862;4.696;2023-10-09T12:15:31;23.60;99.90
19870;DHT22;10097;50.862;4.696;2023-10-09T12:18:07;23.70;99.90
19870;DHT22;10097;50.862;4.696;2023-10-09T12:20:41;23.70;99.90
19870;DHT22;10097;50.862;4.696;2023-10-09T12:23:07;23.90;99.90
19870;DHT22;10097;50.862;4.696;2023-10-09T12:25:33;24.00;99.90
19870;DHT22;10097;50.862;4.696;2023-10-09T12:28:01;24.00;99.90
19870;DHT22;10097;50.862;4.696;2023-10-09T12:30:29;24.00;99.90
19870;DHT22;10097;50.862;4.696;2023-10-09T12:32:58;24.00;99.90
19870;DHT22;10097;50.862;4.696;2023-10-09T12:35:27;24.00;99.90
19870;DHT22;10097;50.862;4.696;2023-10-09T12:37:59;24.10;99.90
19870;DHT22;10097;50.862;4.696;2023-10-09T12:40:26;24.20;99.90
19870;DHT22;10097;50.862;4.696;2023-10-09T12:42:57;24.10;99.90
19870;DHT22;10097;50.862;4.696;2023-10-09T12:45:26;24.00;99.90
19870;DHT22;10097;50.862;4.696;2023-10-09T12:47:55;24.20;99.90
19870;DHT22;10097;50.862;4.696;2023-10-09T12:50:25;24.20;99.90
19870;DHT22;10097;50.862;4.696;2023-10-09T12:52:57;24.20;99.90
19870;DHT22;10097;50.862;4.696;2023-10-09T12:55:41;24.30;99.90
19870;DHT22;10097;50.862;4.696;2023-10-09T12:58:11;24.40;99.90
19870;DHT22;10097;50.862;4.696;2023-10-09T13:00:41;24.40;99.90
19870;DHT22;10097;50.862;4.696;2023-10-09T13:03:17;24.20;99.90
19870;DHT22;10097;50.862;4.696;2023-10-09T13:05:50;23.80;99.90
19870;DHT22;10097;50.862;4.696;2023-10-09T13:08:24;23.60;99.90
19870;DHT22;10097;50.862;4.696;2023-10-09T13:10:57;23.60;99.90
19870;DHT22;10097;50.862;4.696;2023-10-09T13:13:30;23.70;99.90
19870;DHT22;10097;50.862;4.696;2023-10-09T13:16:09;23.80;99.90
19870;DHT22;10097;50.862;4.696;2023-10-09T13:18:46;23.60;99.90
19870;DHT22;10097;50.862;4.696;2023-10-09T13:21:26;23.30;99.90
19870;DHT22;10097;50.862;4.696;2023-10-09T13:23:54;23.50;99.90
19870;DHT22;10097;50.862;4.696;2023-10-09T13:26:23;23.40;99.90
19870;DHT22;10097;50.862;4.696;2023-10-09T13:29:01;23.30;99.90
19870;DHT22;10097;50.862;4.696;2023-10-09T13:31:27;23.20;99.90
19870;DHT22;10097;50.862;4.696;2023-10-09T13:33:54;23.30;99.90
19870;DHT22;10097;50.862;4.696;2023-10-09T13:36:21;23.20;99.90
19870;DHT22;10097;50.862;4.696;2023-10-09T13:39:07;23.30;99.90
19870;DHT22;10097;50.862;4.696;2023-10-09T13:42:05;23.30;99.90
19870;DHT22;10097;50.862;4.696;2023-10-09T13:44:33;23.60;99.90
19870;DHT22;10097;50.862;4.696;2023-10-09T13:47:01;23.70;99.90
19870;DHT22;10097;50.862;4.696;2023-10-09T13:49:31;23.80;99.90
19870;DHT22;10097;50.862;4.696;2023-10-09T13:52:01;23.70;99.90
19870;DHT22;10097;50.862;4.696;2023-10-09T13:54:28;23.80;99.90
19870;DHT22;10097;50.862;4.696;2023-10-09T13:57:05;23.90;99.90
19870;DHT22;10097;50.862;4.696;2023-10-09T13:59:31;23.90;99.90
19870;DHT22;10097;50.862;4.696;2023-10-09T14:02:01;23.90;99.90
19870;DHT22;10097;50.862;4.696;2023-10-09T14:04:28;24.00;99.90
19870;DHT22;10097;50.862;4.696;2023-10-09T14:06:54;24.00;99.90
19870;DHT22;10097;50.862;4.696;2023-10-09T14:09:24;23.80;99.90
19870;DHT22;10097;50.862;4.696;2023-10-09T14:12:20;23.60;99.90
19870;DHT22;10097;50.862;4.696;2023-10-09T14:14:48;23.60;99.90
19870;DHT22;10097;50.862;4.696;2023-10-09T14:17:21;23.50;99.90
19870;DHT22;10097;50.862;4.696;2023-10-09T14:19:57;23.50;99.90
19870;DHT22;10097;50.862;4.696;2023-10-09T14:22:41;23.60;99.90
19870;DHT22;10097;50.862;4.696;2023-10-09T14:25:07;23.70;99.90
19870;DHT22;10097;50.862;4.696;2023-10-09T14:27:40;23.80;99.90
19870;DHT22;10097;50.862;4.696;2023-10-09T14:30:07;23.90;99.90
19870;DHT22;10097;50.862;4.696;2023-10-09T14:32:38;24.10;99.90
19870;DHT22;10097;50.862;4.696;2023-10-09T14:35:11;24.10;99.90
19870;DHT22;10097;50.862;4.696;2023-10-09T14:37:40;24.20;99.90
19870;DHT22;10097;50.862;4.696;2023-10-09T14:40:06;24.40;99.90
19870;DHT22;10097;50.862;4.696;2023-10-09T14:42:41;24.70;99.90
19870;DHT22;10097;50.862;4.696;2023-10-09T14:45:11;24.90;99.90
19870;DHT22;10097;50.862;4.696;2023-10-09T14:47:44;25.10;99.90
19870;DHT22;10097;50.862;4.696;2023-10-09T14:50:12;25.20;99.90
19870;DHT22;10097;50.862;4.696;2023-10-09T14:52:39;25.00;99.90
19870;DHT22;10097;50.862;4.696;2023-10-09T14:55:06;24.80;99.90
19870;DHT22;10097;50.862;4.696;2023-10-09T14:57:32;24.80;99.90
19870;DHT22;10097;50.862;4.696;2023-10-09T14:59:59;24.40;99.90
19870;DHT22;10097;50.862;4.696;2023-10-09T15:02:25;24.20;99.90
19870;DHT22;10097;50.862;4.696;2023-10-09T15:04:51;24.00;99.90
19870;DHT22;10097;50.862;4.696;2023-10-09T15:07:18;24.00;99.90
19870;DHT22;10097;50.862;4.696;2023-10-09T15:09:46;23.80;99.90
19870;DHT22;10097;50.862;4.696;2023-10-09T15:12:12;23.60;99.90
19870;DHT22;10097;50.862;4.696;2023-10-09T15:14:37;23.60;99.90
19870;DHT22;10097;50.862;4.696;2023-10-09T15:17:04;23.70;99.90
19870;DHT22;10097;50.862;4.696;2023-10-09T15:19:32;23.70;99.90
19870;DHT22;10097;50.862;4.696;2023-10-09T15:21:58;23.60;99.90
19870;DHT22;10097;50.862;4.696;2023-10-09T15:24:25;23.70;99.90
19870;DHT22;10097;50.862;4.696;2023-10-09T15:26:53;23.80;99.90
19870;DHT22;10097;50.862;4.696;2023-10-09T15:29:19;23.70;99.90
19870;DHT22;10097;50.862;4.696;2023-10-09T15:31:51;23.60;99.90
19870;DHT22;10097;50.862;4.696;2023-10-09T15:34:17;23.50;99.90
19870;DHT22;10097;50.862;4.696;2023-10-09T15:36:46;23.30;99.90
19870;DHT22;10097;50.862;4.696;2023-10-09T15:39:19;23.10;99.90
19870;DHT22;10097;50.862;4.696;2023-10-09T15:41:48;23.00;99.90
19870;DHT22;10097;50.862;4.696;2023-10-09T15:44:16;22.80;99.90
19870;DHT22;10097;50.862;4.696;2023-10-09T15:46:42;22.70;99.90
19870;DHT22;10097;50.862;4.696;2023-10-09T15:49:11;22.60;99.90
19870;DHT22;10097;50.862;4.696;2023-10-09T15:51:39;22.60;99.90
19870;DHT22;10097;50.862;4.696;2023-10-09T15:54:15;22.50;99.90
19870;DHT22;10097;50.862;4.696;2023-10-09T15:56:47;22.40;99.90
19870;DHT22;10097;50.862;4.696;2023-10-09T15:59:15;22.40;99.90
19870;DHT22;10097;50.862;4.696;2023-10-09T16:02:01;22.40;99.90
19870;DHT22;10097;50.862;4.696;2023-10-09T16:04:57;22.30;99.90
19870;DHT22;10097;50.862;4.696;2023-10-09T16:07:34;22.30;99.90
19870;DHT22;10097;50.862;4.696;2023-10-09T16:10:06;22.30;99.90
19870;DHT22;10097;50.862;4.696;2023-10-09T16:12:44;22.20;99.90
19870;DHT22;10097;50.862;4.696;2023-10-09T16:15:23;22.10;99.90
19870;DHT22;10097;50.862;4.696;2023-10-09T16:17:57;22.10;99.90
19870;DHT22;10097;50.862;4.696;2023-10-09T16:20:51;22.00;99.90
19870;DHT22;10097;50.862;4.696;2023-10-09T16:23:31;21.80;99.90
19870;DHT22;10097;50.862;4.696;2023-10-09T16:26:04;21.70;99.90
19870;DHT22;10097;50.862;4.696;2023-10-09T16:28:32;21.60;99.90
19870;DHT22;10097;50.862;4.696;2023-10-09T16:31:04;21.60;99.90
19870;DHT22;10097;50.862;4.696;2023-10-09T16:34:04;21.50;99.90
19870;DHT22;10097;50.862;4.696;2023-10-09T16:36:52;21.30;99.90
19870;DHT22;10097;50.862;4.696;2023-10-09T16:39:18;21.30;99.90
19870;DHT22;10097;50.862;4.696;2023-10-09T16:41:53;21.10;99.90
19870;DHT22;10097;50.862;4.696;2023-10-09T16:44:30;21.00;99.90
19870;DHT22;10097;50.862;4.696;2023-10-09T16:47:20;20.90;99.90